createdAt,value
2022-08-30T00:36:30.259Z,100729.12
2022-08-30T00:44:49.146Z,100724.23
2022-08-30T00:48:36.908Z,100730.73
2022-08-30T00:59:58.407Z,100731.24
2022-08-30T01:41:23.233Z,100717.23
2022-08-30T01:48:08.561Z,100717.36
2022-08-30T01:51:51.268Z,100709.86
2022-08-30T01:55:35.223Z,100707.96
2022-08-30T01:59:18.272Z,100711.50
2022-08-30T02:03:04.833Z,100715.13
2022-08-30T02:36:32.276Z,100717.66
2022-08-30T02:51:45.607Z,100717.70
2022-08-30T02:59:19.134Z,100729.64
2022-08-30T03:03:17.522Z,100728.38
2022-08-30T03:21:15.660Z,100742.70
2022-08-30T03:24:35.300Z,100744.52
2022-08-30T04:01:01.981Z,100756.46
2022-08-30T04:04:59.847Z,100759.02
2022-08-30T04:09:03.468Z,100763.26
2022-08-30T04:16:07.328Z,100775.21
2022-08-30T04:23:43.187Z,100781.31
2022-08-30T04:48:50.978Z,100803.39
2022-08-30T04:59:23.380Z,100811.00
2022-08-30T05:06:09.533Z,100809.69
2022-08-30T05:16:54.086Z,100819.67
2022-08-30T05:20:31.540Z,100823.37
2022-08-30T05:24:33.349Z,100825.43
2022-08-30T05:31:32.603Z,100825.72
2022-08-30T05:53:51.282Z,100837.76
2022-08-30T05:56:48.039Z,100836.64
2022-08-30T05:59:26.903Z,100835.64
2022-08-30T06:02:02.412Z,100839.08
2022-08-30T06:05:18.633Z,100844.31
2022-08-30T06:11:56.048Z,100845.10
2022-08-30T06:15:12.558Z,100845.77
2022-08-30T06:17:45.090Z,100845.58
2022-08-30T06:20:24.476Z,100846.02
2022-08-30T06:23:33.433Z,100847.38
2022-08-30T06:26:22.021Z,100843.92
2022-08-30T06:29:19.501Z,100846.07
2022-08-30T06:32:10.829Z,100846.80
2022-08-30T06:34:43.280Z,100843.23
2022-08-30T06:37:29.196Z,100842.41
2022-08-30T06:40:05.815Z,100842.30
2022-08-30T06:42:36.743Z,100847.85
2022-08-30T06:45:13.234Z,100852.84
2022-08-30T06:47:45.143Z,100849.52
2022-08-30T06:50:19.518Z,100846.17
2022-08-30T06:52:55.904Z,100844.19
2022-08-30T06:55:38.932Z,100847.86
2022-08-30T06:58:16.839Z,100850.33
2022-08-30T07:00:53.951Z,100852.88
2022-08-30T07:03:28.286Z,100859.08
2022-08-30T07:06:16.038Z,100857.13
2022-08-30T07:08:56.051Z,100859.52
2022-08-30T07:11:37.342Z,100863.17
2022-08-30T07:14:07.243Z,100866.40
2022-08-30T07:16:43.603Z,100868.36
2022-08-30T07:19:20.339Z,100871.73
2022-08-30T07:21:50.764Z,100868.77
2022-08-30T07:24:20.845Z,100874.17
2022-08-30T07:26:53.957Z,100873.94
2022-08-30T07:29:25.784Z,100875.63
2022-08-30T07:32:00.753Z,100878.16
2022-08-30T07:35:08.430Z,100875.56
2022-08-30T07:37:45.787Z,100876.02
2022-08-30T07:40:19.627Z,100877.34
2022-08-30T07:42:52.939Z,100879.49
2022-08-30T07:45:35.451Z,100879.64
2022-08-30T07:48:16.966Z,100881.10
2022-08-30T07:50:58.978Z,100879.10
2022-08-30T07:53:46.372Z,100874.80
2022-08-30T07:56:25.467Z,100875.27
2022-08-30T07:59:08.223Z,100872.83
2022-08-30T08:04:48.984Z,100880.31
2022-08-30T08:07:33.937Z,100879.63
2022-08-30T08:13:32.925Z,100888.05
2022-08-30T08:16:29.434Z,100892.11
2022-08-30T08:19:09.518Z,100889.17
2022-08-30T08:21:41.888Z,100894.89
2022-08-30T08:24:15.586Z,100900.31
2022-08-30T08:26:49.433Z,100903.66
2022-08-30T08:29:34.360Z,100909.63
2022-08-30T08:32:08.331Z,100908.05
2022-08-30T08:34:56.189Z,100909.58
2022-08-30T08:37:42.614Z,100917.33
2022-08-30T08:40:23.678Z,100917.11
2022-08-30T08:44:05.659Z,100914.45
2022-08-30T08:47:21.238Z,100919.59
2022-08-30T08:50:01.834Z,100923.39
2022-08-30T08:53:24.886Z,100928.14
2022-08-30T08:56:20.762Z,100927.09
2022-08-30T08:59:07.117Z,100929.49
2022-08-30T09:01:51.173Z,100927.98
2022-08-30T09:04:41.745Z,100931.54
2022-08-30T09:07:39.490Z,100929.67
2022-08-30T09:10:46.941Z,100930.63
2022-08-30T09:13:39.010Z,100930.64
2022-08-30T09:16:57.813Z,100933.55
2022-08-30T09:19:45.420Z,100926.14
2022-08-30T09:22:47.485Z,100925.23
2022-08-30T09:25:42.221Z,100929.65
2022-08-30T09:29:02.743Z,100927.32
2022-08-30T09:35:57.818Z,100925.98
2022-08-30T09:38:48.327Z,100930.15
2022-08-30T09:41:41.618Z,100932.19
2022-08-30T09:44:30.178Z,100931.68
2022-08-30T09:47:36.539Z,100928.65
2022-08-30T09:50:42.289Z,100926.27
2022-08-30T09:53:34.388Z,100926.29
2022-08-30T09:57:44.189Z,100925.77
2022-08-30T10:01:16.733Z,100924.35
2022-08-30T10:04:32.227Z,100922.77
2022-08-30T10:07:18.654Z,100928.13
2022-08-30T10:10:03.515Z,100925.16
2022-08-30T10:13:25.190Z,100922.39
2022-08-30T10:16:06.930Z,100922.30
2022-08-30T10:19:18.573Z,100924.33
2022-08-30T10:21:58.746Z,100926.05
2022-08-30T10:24:45.562Z,100923.39
2022-08-30T10:27:58.782Z,100926.02
2022-08-30T10:30:32.439Z,100921.48
2022-08-30T10:33:10.600Z,100919.84
2022-08-30T10:35:49.465Z,100915.86
2022-08-30T10:38:20.334Z,100915.67
2022-08-30T10:41:15.944Z,100917.52
2022-08-30T10:44:46.037Z,100915.40
2022-08-30T10:47:45.259Z,100915.50
2022-08-30T10:50:33.919Z,100915.92
2022-08-30T10:53:24.338Z,100913.49
2022-08-30T10:56:13.242Z,100910.28
2022-08-30T10:58:47.016Z,100905.05
2022-08-30T11:01:47.353Z,100901.37
2022-08-30T11:04:45.363Z,100896.35
2022-08-30T11:07:59.410Z,100897.14
2022-08-30T11:19:38.380Z,100899.32
2022-08-30T11:22:34.399Z,100902.33
2022-08-30T11:25:39.057Z,100898.60
2022-08-30T11:28:09.241Z,100893.56
2022-08-30T11:30:52.890Z,100892.81
2022-08-30T11:33:42.727Z,100894.55
2022-08-30T11:36:37.341Z,100887.80
2022-08-30T11:39:17.285Z,100887.27
2022-08-30T11:42:14.167Z,100886.92
2022-08-30T11:45:35.593Z,100885.83
2022-08-30T11:49:15.707Z,100883.25
2022-08-30T11:52:27.221Z,100882.09
2022-08-30T11:56:10.907Z,100880.64
2022-08-30T11:59:43.453Z,100876.93
2022-08-30T12:03:02.997Z,100878.07
2022-08-30T12:06:42.210Z,100876.77
2022-08-30T12:09:30.652Z,100872.52
2022-08-30T12:12:06.482Z,100871.86
2022-08-30T12:15:28.593Z,100878.63
2022-08-30T12:18:19.309Z,100878.79
2022-08-30T12:20:53.682Z,100879.13
2022-08-30T12:24:21.453Z,100879.15
2022-08-30T12:26:55.298Z,100881.35
2022-08-30T12:32:32.498Z,100874.23
2022-08-30T12:35:08.798Z,100868.66
2022-08-30T12:37:42.156Z,100866.70
2022-08-30T12:40:35.652Z,100862.98
2022-08-30T12:43:40.445Z,100862.13
2022-08-30T12:46:59.604Z,100858.91
2022-08-30T12:49:51.702Z,100852.03
2022-08-30T12:56:49.549Z,100856.73
2022-08-30T12:59:59.595Z,100850.80
2022-08-30T13:03:42.988Z,100852.13
2022-08-30T13:10:51.652Z,100852.84
2022-08-30T13:14:04.562Z,100853.34
2022-08-30T13:16:50.029Z,100854.96
2022-08-30T13:21:10.627Z,100850.70
2022-08-30T13:23:48.717Z,100851.87
2022-08-30T13:26:32.410Z,100852.46
2022-08-30T13:29:14.514Z,100848.03
2022-08-30T13:31:44.941Z,100846.41
2022-08-30T13:34:30.678Z,100847.17
2022-08-30T13:37:49.554Z,100842.02
2022-08-30T13:40:32.133Z,100840.34
2022-08-30T13:43:04.882Z,100840.93
2022-08-30T13:45:44.668Z,100837.29
2022-08-30T13:48:37.351Z,100836.80
2022-08-30T13:51:28.721Z,100832.02
2022-08-30T13:54:07.658Z,100830.52
2022-08-30T14:00:37.848Z,100832.61
2022-08-30T14:04:13.197Z,100831.80
2022-08-30T14:07:22.436Z,100827.61
2022-08-30T14:13:24.310Z,100825.55
2022-08-30T14:23:03.976Z,100819.85
2022-08-30T14:25:47.106Z,100819.35
2022-08-30T14:28:21.809Z,100811.45
2022-08-30T14:31:13.458Z,100817.64
2022-08-30T14:34:31.599Z,100815.68
2022-08-30T14:37:28.842Z,100813.59
2022-08-30T14:40:32.650Z,100810.42
2022-08-30T14:43:56.050Z,100806.47
2022-08-30T14:47:05.302Z,100810.05
2022-08-30T14:49:58.636Z,100806.84
2022-08-30T14:52:46.454Z,100809.11
2022-08-30T14:56:34.488Z,100806.14
2022-08-30T14:59:19.752Z,100807.98
2022-08-30T15:02:11.396Z,100806.01
2022-08-30T15:04:59.852Z,100805.55
2022-08-30T15:11:31.387Z,100809.45
2022-08-30T15:14:44.102Z,100807.48
2022-08-30T15:21:12.536Z,100805.95
2022-08-30T15:25:12.228Z,100800.79
2022-08-30T15:28:23.568Z,100801.93
2022-08-30T15:31:31.318Z,100801.02
2022-08-30T15:34:33.632Z,100798.69
2022-08-30T15:37:28.837Z,100797.00
2022-08-30T15:40:30.608Z,100797.58
2022-08-30T15:43:03.940Z,100798.88
2022-08-30T15:45:34.072Z,100797.46
2022-08-30T15:48:38.935Z,100795.35
2022-08-30T15:51:46.501Z,100791.42
2022-08-30T15:54:55.886Z,100788.11
2022-08-30T15:58:31.604Z,100785.55
2022-08-30T16:02:03.442Z,100784.75
2022-08-30T16:04:47.530Z,100785.25
2022-08-30T16:07:49.536Z,100783.95
2022-08-30T16:10:47.962Z,100786.61
2022-08-30T16:15:53.613Z,100786.17
2022-08-30T16:17:45.343Z,100789.34
2022-08-30T16:21:35.090Z,100788.02
2022-08-30T16:33:02.648Z,100783.19
2022-08-30T16:36:26.538Z,100786.06
2022-08-30T16:39:08.355Z,100783.52
2022-08-30T16:47:52.115Z,100779.84
2022-08-30T16:50:23.463Z,100782.42
2022-08-30T16:52:52.743Z,100780.40
2022-08-30T16:55:23.035Z,100776.90
2022-08-30T16:57:52.327Z,100779.50
2022-08-30T17:00:30.630Z,100779.33
2022-08-30T17:03:02.597Z,100782.23
2022-08-30T17:05:33.025Z,100783.44
2022-08-30T17:08:04.043Z,100782.76
2022-08-30T17:10:35.753Z,100782.15
2022-08-30T17:13:11.078Z,100785.73
2022-08-30T17:15:47.524Z,100784.10
2022-08-30T17:18:20.511Z,100789.26
2022-08-30T17:20:59.205Z,100787.28
2022-08-30T17:23:31.915Z,100787.44
2022-08-30T17:26:04.022Z,100785.52
2022-08-30T17:28:51.431Z,100786.79
2022-08-30T17:31:34.893Z,100793.05
2022-08-30T17:34:27.933Z,100795.70
2022-08-30T17:38:13.641Z,100802.52
2022-08-30T17:40:58.892Z,100808.45
2022-08-30T17:43:38.098Z,100806.89
2022-08-30T17:49:22.587Z,100813.69
2022-08-30T17:52:07.168Z,100814.44
2022-08-30T17:54:50.952Z,100818.19
2022-08-30T18:01:54.754Z,100820.26
2022-08-30T18:05:27.926Z,100826.27
2022-08-30T18:08:20.506Z,100830.43
2022-08-30T18:11:13.430Z,100831.67
2022-08-30T18:17:30.727Z,100836.89
2022-08-30T18:20:18.446Z,100840.91
2022-08-30T18:24:10.765Z,100849.16
2022-08-30T18:27:31.175Z,100851.80
2022-08-30T18:30:32.690Z,100852.96
2022-08-30T18:33:51.750Z,100851.27
2022-08-30T18:36:47.505Z,100851.95
2022-08-30T18:40:02.992Z,100849.47
2022-08-30T18:43:45.036Z,100850.77
2022-08-30T18:47:23.127Z,100846.59
2022-08-30T18:51:01.611Z,100848.92
2022-08-30T18:57:42.583Z,100849.16
2022-08-30T19:01:34.390Z,100845.23
2022-08-30T19:04:45.416Z,100843.64
2022-08-30T19:12:26.264Z,100839.09
2022-08-30T19:20:37.598Z,100840.88
2022-08-30T19:24:04.379Z,100847.23
2022-08-30T19:27:37.325Z,100841.77
2022-08-30T19:32:57.643Z,100842.37
2022-08-30T19:41:09.199Z,100848.50
2022-08-30T19:43:53.551Z,100847.20
2022-08-30T19:46:32.325Z,100848.81
2022-08-30T19:53:05.011Z,100851.45
2022-08-30T19:55:59.660Z,100849.65
2022-08-30T19:59:24.255Z,100849.52
2022-08-30T20:11:01.731Z,100851.48
2022-08-30T20:13:44.925Z,100851.02
2022-08-30T20:16:46.419Z,100851.59
2022-08-30T20:19:47.368Z,100853.31
2022-08-30T20:23:11.092Z,100851.17
2022-08-30T20:26:18.578Z,100851.02
2022-08-30T20:29:17.221Z,100853.24
2022-08-30T20:35:31.414Z,100845.85
2022-08-30T20:38:29.838Z,100847.35
2022-08-30T20:41:29.414Z,100847.29
2022-08-30T20:47:51.301Z,100847.20
2022-08-30T20:51:06.370Z,100846.14
2022-08-30T20:54:03.137Z,100848.58
2022-08-30T20:57:35.996Z,100851.69
2022-08-30T21:00:45.597Z,100849.77
2022-08-30T21:04:26.718Z,100850.58
2022-08-30T21:07:26.279Z,100855.15
2022-08-30T21:10:29.071Z,100862.36
2022-08-30T21:13:34.431Z,100862.45
2022-08-30T21:16:24.447Z,100862.16
2022-08-30T21:19:35.403Z,100863.85
2022-08-30T21:23:11.709Z,100867.48
2022-08-30T21:26:22.151Z,100867.19
2022-08-30T21:29:38.232Z,100865.05
2022-08-30T21:32:46.402Z,100864.92
2022-08-30T21:35:53.118Z,100868.84
2022-08-30T21:39:05.776Z,100871.42
2022-08-30T21:41:58.071Z,100876.65
2022-08-30T21:45:05.779Z,100873.86
2022-08-30T21:47:54.027Z,100873.52
2022-08-30T21:51:09.381Z,100875.95
2022-08-30T21:54:17.735Z,100878.90
2022-08-30T21:57:20.645Z,100883.77
2022-08-30T22:00:40.237Z,100886.35
2022-08-30T22:03:57.263Z,100880.51
2022-08-30T22:06:39.079Z,100881.49
2022-08-30T22:09:47.730Z,100881.48
2022-08-30T22:12:39.093Z,100882.39
2022-08-30T22:15:33.268Z,100880.37
2022-08-30T22:18:59.082Z,100877.94
2022-08-30T22:21:52.123Z,100878.30
2022-08-30T22:24:46.950Z,100878.09
2022-08-30T22:27:55.146Z,100880.67
2022-08-30T22:30:45.622Z,100883.53
2022-08-30T22:33:43.110Z,100881.59
2022-08-30T22:36:46.546Z,100886.15
2022-08-30T22:39:48.905Z,100884.56
2022-08-30T22:42:48.668Z,100885.42
2022-08-30T22:46:29.565Z,100892.78
2022-08-30T22:53:01.955Z,100894.14
2022-08-30T22:56:38.340Z,100888.87
2022-08-30T22:59:53.861Z,100885.98
2022-08-30T23:03:24.153Z,100883.02
2022-08-30T23:07:12.687Z,100883.67
2022-08-30T23:10:51.760Z,100881.52
2022-08-30T23:13:50.377Z,100884.81
2022-08-30T23:16:51.485Z,100885.02
2022-08-30T23:20:12.480Z,100884.98
2022-08-30T23:23:24.628Z,100885.80
2022-08-30T23:26:24.123Z,100887.44
2022-08-30T23:29:50.279Z,100888.26
2022-08-30T23:33:17.543Z,100891.01
2022-08-30T23:36:32.941Z,100887.88
2022-08-30T23:43:56.207Z,100893.13
2022-08-30T23:47:05.820Z,100893.22
2022-08-30T23:51:21.904Z,100897.07
2022-08-30T23:54:41.175Z,100899.51
2022-08-30T23:58:07.711Z,100897.70
